sensor_id;sensor_type;location;lat;lon;timestamp;temperature;humidity
12688;DHT22;6408;59.388;17.798;2022-09-04T00:00:44;11.20;99.90
12688;DHT22;6408;59.388;17.798;2022-09-04T00:03:21;11.20;99.90
12688;DHT22;6408;59.388;17.798;2022-09-04T00:05:52;11.20;99.90
12688;DHT22;6408;59.388;17.798;2022-09-04T00:08:42;11.20;99.90
12688;DHT22;6408;59.388;17.798;2022-09-04T00:11:22;11.30;99.90
12688;DHT22;6408;59.388;17.798;2022-09-04T00:13:57;11.30;99.90
12688;DHT22;6408;59.388;17.798;2022-09-04T00:16:30;11.20;99.90
12688;DHT22;6408;59.388;17.798;2022-09-04T00:19:13;11.20;99.90
12688;DHT22;6408;59.388;17.798;2022-09-04T00:21:46;11.20;99.90
12688;DHT22;6408;59.388;17.798;2022-09-04T00:24:21;11.20;99.90
12688;DHT22;6408;59.388;17.798;2022-09-04T00:26:52;11.20;99.90
12688;DHT22;6408;59.388;17.798;2022-09-04T00:29:33;11.10;99.90
12688;DHT22;6408;59.388;17.798;2022-09-04T00:32:10;11.00;99.90
12688;DHT22;6408;59.388;17.798;2022-09-04T00:34:53;11.00;99.90
12688;DHT22;6408;59.388;17.798;2022-09-04T00:37:31;11.00;99.90
12688;DHT22;6408;59.388;17.798;2022-09-04T00:40:04;11.00;99.90
12688;DHT22;6408;59.388;17.798;2022-09-04T00:42:46;10.90;99.90
12688;DHT22;6408;59.388;17.798;2022-09-04T00:45:29;10.80;99.90
12688;DHT22;6408;59.388;17.798;2022-09-04T00:48:33;10.80;99.90
12688;DHT22;6408;59.388;17.798;2022-09-04T00:51:15;10.70;99.90
12688;DHT22;6408;59.388;17.798;2022-09-04T00:54:08;10.70;99.90
12688;DHT22;6408;59.388;17.798;2022-09-04T01:00:11;10.80;99.90
12688;DHT22;6408;59.388;17.798;2022-09-04T01:06:03;10.60;99.90
12688;DHT22;6408;59.388;17.798;2022-09-04T01:08:46;10.50;99.90
12688;DHT22;6408;59.388;17.798;2022-09-04T01:11:26;10.50;99.90
12688;DHT22;6408;59.388;17.798;2022-09-04T01:14:07;10.50;99.90
12688;DHT22;6408;59.388;17.798;2022-09-04T01:16:44;10.40;99.90
12688;DHT22;6408;59.388;17.798;2022-09-04T01:19:22;10.40;99.90
12688;DHT22;6408;59.388;17.798;2022-09-04T01:22:11;10.40;99.90
12688;DHT22;6408;59.388;17.798;2022-09-04T01:24:57;10.40;99.90
12688;DHT22;6408;59.388;17.798;2022-09-04T01:27:30;10.30;99.90
12688;DHT22;6408;59.388;17.798;2022-09-04T01:30:03;10.30;99.90
12688;DHT22;6408;59.388;17.798;2022-09-04T01:32:41;10.30;99.90
12688;DHT22;6408;59.388;17.798;2022-09-04T01:35:21;10.30;99.90
12688;DHT22;6408;59.388;17.798;2022-09-04T01:38:01;10.20;99.90
12688;DHT22;6408;59.388;17.798;2022-09-04T01:40:39;10.20;99.90
12688;DHT22;6408;59.388;17.798;2022-09-04T01:43:10;10.10;99.90
12688;DHT22;6408;59.388;17.798;2022-09-04T01:49:02;10.10;99.90
12688;DHT22;6408;59.388;17.798;2022-09-04T01:51:37;10.00;99.90
12688;DHT22;6408;59.388;17.798;2022-09-04T01:54:12;10.10;99.90
12688;DHT22;6408;59.388;17.798;2022-09-04T01:56:53;10.10;99.90
12688;DHT22;6408;59.388;17.798;2022-09-04T01:59:30;10.00;99.90
12688;DHT22;6408;59.388;17.798;2022-09-04T02:02:07;10.00;99.90
12688;DHT22;6408;59.388;17.798;2022-09-04T02:04:49;9.90;99.90
12688;DHT22;6408;59.388;17.798;2022-09-04T02:07:24;9.90;99.90
12688;DHT22;6408;59.388;17.798;2022-09-04T02:10:07;9.90;99.90
12688;DHT22;6408;59.388;17.798;2022-09-04T02:12:46;9.80;99.90
12688;DHT22;6408;59.388;17.798;2022-09-04T02:15:27;9.80;99.90
12688;DHT22;6408;59.388;17.798;2022-09-04T02:18:06;9.70;99.90
12688;DHT22;6408;59.388;17.798;2022-09-04T02:20:42;9.70;99.90
12688;DHT22;6408;59.388;17.798;2022-09-04T02:23:17;9.70;99.90
12688;DHT22;6408;59.388;17.798;2022-09-04T02:25:55;9.60;99.90
12688;DHT22;6408;59.388;17.798;2022-09-04T02:28:32;9.60;99.90
12688;DHT22;6408;59.388;17.798;2022-09-04T02:31:24;9.50;99.90
12688;DHT22;6408;59.388;17.798;2022-09-04T02:34:08;9.50;99.90
12688;DHT22;6408;59.388;17.798;2022-09-04T02:36:43;9.50;99.90
12688;DHT22;6408;59.388;17.798;2022-09-04T02:39:25;9.40;99.90
12688;DHT22;6408;59.388;17.798;2022-09-04T02:42:01;9.40;99.90
12688;DHT22;6408;59.388;17.798;2022-09-04T02:44:43;9.30;99.90
12688;DHT22;6408;59.388;17.798;2022-09-04T02:47:26;9.30;99.90
12688;DHT22;6408;59.388;17.798;2022-09-04T02:50:13;9.30;99.90
12688;DHT22;6408;59.388;17.798;2022-09-04T02:52:58;9.20;99.90
12688;DHT22;6408;59.388;17.798;2022-09-04T02:59:12;9.10;99.90
12688;DHT22;6408;59.388;17.798;2022-09-04T03:01:47;9.20;99.90
12688;DHT22;6408;59.388;17.798;2022-09-04T03:04:25;9.20;99.90
12688;DHT22;6408;59.388;17.798;2022-09-04T03:07:00;9.20;99.90
12688;DHT22;6408;59.388;17.798;2022-09-04T03:09:36;9.10;99.90
12688;DHT22;6408;59.388;17.798;2022-09-04T03:12:41;9.10;99.90
12688;DHT22;6408;59.388;17.798;2022-09-04T03:15:16;9.20;99.90
12688;DHT22;6408;59.388;17.798;2022-09-04T03:17:54;9.20;99.90
12688;DHT22;6408;59.388;17.798;2022-09-04T03:20:27;9.20;99.90
12688;DHT22;6408;59.388;17.798;2022-09-04T03:22:59;9.20;99.90
12688;DHT22;6408;59.388;17.798;2022-09-04T03:25:55;9.20;99.90
12688;DHT22;6408;59.388;17.798;2022-09-04T03:28:30;9.20;99.90
12688;DHT22;6408;59.388;17.798;2022-09-04T03:31:16;9.20;99.90
12688;DHT22;6408;59.388;17.798;2022-09-04T03:33:51;9.30;99.90
12688;DHT22;6408;59.388;17.798;2022-09-04T03:36:27;9.30;99.90
12688;DHT22;6408;59.388;17.798;2022-09-04T03:39:10;9.30;99.90
12688;DHT22;6408;59.388;17.798;2022-09-04T03:41:47;9.30;99.90
12688;DHT22;6408;59.388;17.798;2022-09-04T03:44:25;9.30;99.90
12688;DHT22;6408;59.388;17.798;2022-09-04T03:47:03;9.30;99.90
12688;DHT22;6408;59.388;17.798;2022-09-04T03:49:52;9.40;99.90
12688;DHT22;6408;59.388;17.798;2022-09-04T03:52:39;9.30;99.90
12688;DHT22;6408;59.388;17.798;2022-09-04T03:55:38;9.30;99.90
12688;DHT22;6408;59.388;17.798;2022-09-04T03:58:18;9.40;99.90
12688;DHT22;6408;59.388;17.798;2022-09-04T04:00:53;9.40;99.90
12688;DHT22;6408;59.388;17.798;2022-09-04T04:03:43;9.40;99.90
12688;DHT22;6408;59.388;17.798;2022-09-04T04:06:22;9.40;99.90
12688;DHT22;6408;59.388;17.798;2022-09-04T04:09:09;9.40;99.90
12688;DHT22;6408;59.388;17.798;2022-09-04T04:11:53;9.50;99.90
12688;DHT22;6408;59.388;17.798;2022-09-04T04:14:35;9.40;99.90
12688;DHT22;6408;59.388;17.798;2022-09-04T04:17:32;9.40;99.90
12688;DHT22;6408;59.388;17.798;2022-09-04T04:20:13;9.50;99.90
12688;DHT22;6408;59.388;17.798;2022-09-04T04:23:00;9.50;99.90
12688;DHT22;6408;59.388;17.798;2022-09-04T04:25:59;9.50;99.90
12688;DHT22;6408;59.388;17.798;2022-09-04T04:28:45;9.60;99.90
12688;DHT22;6408;59.388;17.798;2022-09-04T04:31:33;9.60;99.90
12688;DHT22;6408;59.388;17.798;2022-09-04T04:34:09;9.60;99.90
12688;DHT22;6408;59.388;17.798;2022-09-04T04:36:48;9.60;99.90
12688;DHT22;6408;59.388;17.798;2022-09-04T04:39:24;9.60;99.90
12688;DHT22;6408;59.388;17.798;2022-09-04T04:42:06;9.60;99.90
12688;DHT22;6408;59.388;17.798;2022-09-04T04:45:13;9.70;99.90
12688;DHT22;6408;59.388;17.798;2022-09-04T04:51:24;9.80;99.90
12688;DHT22;6408;59.388;17.798;2022-09-04T04:54:18;9.80;99.90
12688;DHT22;6408;59.388;17.798;2022-09-04T04:56:53;9.80;99.90
12688;DHT22;6408;59.388;17.798;2022-09-04T04:59:32;9.70;99.90
12688;DHT22;6408;59.388;17.798;2022-09-04T05:02:06;9.70;99.90
12688;DHT22;6408;59.388;17.798;2022-09-04T05:04:46;9.70;99.90
12688;DHT22;6408;59.388;17.798;2022-09-04T05:07:25;9.80;99.90
12688;DHT22;6408;59.388;17.798;2022-09-04T05:10:13;9.80;99.90
12688;DHT22;6408;59.388;17.798;2022-09-04T05:13:01;9.80;99.90
12688;DHT22;6408;59.388;17.798;2022-09-04T05:15:41;9.80;99.90
12688;DHT22;6408;59.388;17.798;2022-09-04T05:18:15;9.90;99.90
12688;DHT22;6408;59.388;17.798;2022-09-04T05:20:50;9.90;99.90
12688;DHT22;6408;59.388;17.798;2022-09-04T05:23:38;10.00;99.90
12688;DHT22;6408;59.388;17.798;2022-09-04T05:26:10;10.00;99.90
12688;DHT22;6408;59.388;17.798;2022-09-04T05:28:47;10.10;99.90
12688;DHT22;6408;59.388;17.798;2022-09-04T05:31:26;10.20;99.90
12688;DHT22;6408;59.388;17.798;2022-09-04T05:34:01;10.30;99.90
12688;DHT22;6408;59.388;17.798;2022-09-04T05:36:43;10.50;99.90
12688;DHT22;6408;59.388;17.798;2022-09-04T05:39:16;10.90;99.90
12688;DHT22;6408;59.388;17.798;2022-09-04T05:42:00;12.90;99.90
12688;DHT22;6408;59.388;17.798;2022-09-04T05:44:38;13.90;99.90
12688;DHT22;6408;59.388;17.798;2022-09-04T05:47:19;15.00;99.90
12688;DHT22;6408;59.388;17.798;2022-09-04T05:50:10;13.90;99.90
12688;DHT22;6408;59.388;17.798;2022-09-04T05:53:02;15.10;99.90
12688;DHT22;6408;59.388;17.798;2022-09-04T05:58:46;13.50;99.90
12688;DHT22;6408;59.388;17.798;2022-09-04T06:01:29;13.70;99.90
12688;DHT22;6408;59.388;17.798;2022-09-04T06:04:30;13.50;99.90
12688;DHT22;6408;59.388;17.798;2022-09-04T06:07:08;12.90;99.90
12688;DHT22;6408;59.388;17.798;2022-09-04T06:09:53;13.10;99.90
12688;DHT22;6408;59.388;17.798;2022-09-04T06:12:41;12.90;99.90
12688;DHT22;6408;59.388;17.798;2022-09-04T06:15:23;12.60;99.90
12688;DHT22;6408;59.388;17.798;2022-09-04T06:18:19;12.40;99.90
12688;DHT22;6408;59.388;17.798;2022-09-04T06:21:06;12.30;99.90
12688;DHT22;6408;59.388;17.798;2022-09-04T06:24:00;12.40;99.90
12688;DHT22;6408;59.388;17.798;2022-09-04T06:27:02;12.60;99.90
12688;DHT22;6408;59.388;17.798;2022-09-04T06:33:05;13.30;99.90
12688;DHT22;6408;59.388;17.798;2022-09-04T06:35:50;13.20;99.90
12688;DHT22;6408;59.388;17.798;2022-09-04T06:38:35;12.80;99.90
12688;DHT22;6408;59.388;17.798;2022-09-04T06:41:23;12.70;99.90
12688;DHT22;6408;59.388;17.798;2022-09-04T06:44:01;12.70;99.90
12688;DHT22;6408;59.388;17.798;2022-09-04T06:46:36;12.90;99.90
12688;DHT22;6408;59.388;17.798;2022-09-04T06:49:10;13.00;99.90
12688;DHT22;6408;59.388;17.798;2022-09-04T06:51:57;13.10;99.90
12688;DHT22;6408;59.388;17.798;2022-09-04T06:57:48;13.50;99.90
12688;DHT22;6408;59.388;17.798;2022-09-04T07:00:19;14.00;99.90
12688;DHT22;6408;59.388;17.798;2022-09-04T07:03:07;14.70;99.90
12688;DHT22;6408;59.388;17.798;2022-09-04T07:05:44;14.70;99.90
12688;DHT22;6408;59.388;17.798;2022-09-04T07:08:25;14.60;99.90
12688;DHT22;6408;59.388;17.798;2022-09-04T07:11:07;17.90;99.90
12688;DHT22;6408;59.388;17.798;2022-09-04T07:14:04;23.50;99.90
12688;DHT22;6408;59.388;17.798;2022-09-04T07:16:44;27.60;99.90
12688;DHT22;6408;59.388;17.798;2022-09-04T07:22:25;31.00;99.90
12688;DHT22;6408;59.388;17.798;2022-09-04T07:25:03;32.10;99.90
12688;DHT22;6408;59.388;17.798;2022-09-04T07:27:49;31.20;98.50
12688;DHT22;6408;59.388;17.798;2022-09-04T07:30:18;31.70;97.30
12688;DHT22;6408;59.388;17.798;2022-09-04T07:32:52;31.60;97.20
12688;DHT22;6408;59.388;17.798;2022-09-04T07:35:25;33.00;96.50
12688;DHT22;6408;59.388;17.798;2022-09-04T07:37:58;33.90;95.10
12688;DHT22;6408;59.388;17.798;2022-09-04T07:40:34;34.40;94.10
12688;DHT22;6408;59.388;17.798;2022-09-04T07:43:06;34.30;91.80
12688;DHT22;6408;59.388;17.798;2022-09-04T07:45:38;34.60;91.10
12688;DHT22;6408;59.388;17.798;2022-09-04T07:48:18;35.80;91.20
12688;DHT22;6408;59.388;17.798;2022-09-04T07:50:54;35.50;89.30
12688;DHT22;6408;59.388;17.798;2022-09-04T07:53:44;35.50;90.00
12688;DHT22;6408;59.388;17.798;2022-09-04T07:56:17;34.50;87.90
12688;DHT22;6408;59.388;17.798;2022-09-04T07:59:18;33.30;88.60
12688;DHT22;6408;59.388;17.798;2022-09-04T08:02:02;33.40;89.50
12688;DHT22;6408;59.388;17.798;2022-09-04T08:04:52;32.90;89.20
12688;DHT22;6408;59.388;17.798;2022-09-04T08:07:37;34.20;87.40
12688;DHT22;6408;59.388;17.798;2022-09-04T08:10:21;32.20;85.90
12688;DHT22;6408;59.388;17.798;2022-09-04T08:13:25;33.30;86.40
12688;DHT22;6408;59.388;17.798;2022-09-04T08:16:05;33.70;86.00
12688;DHT22;6408;59.388;17.798;2022-09-04T08:18:47;33.50;83.60
12688;DHT22;6408;59.388;17.798;2022-09-04T08:21:24;34.00;83.60
12688;DHT22;6408;59.388;17.798;2022-09-04T08:24:28;34.20;81.40
12688;DHT22;6408;59.388;17.798;2022-09-04T08:27:09;34.30;82.40
12688;DHT22;6408;59.388;17.798;2022-09-04T08:30:03;34.40;80.20
12688;DHT22;6408;59.388;17.798;2022-09-04T08:35:40;33.90;82.20
12688;DHT22;6408;59.388;17.798;2022-09-04T08:38:41;34.50;81.80
12688;DHT22;6408;59.388;17.798;2022-09-04T08:51:16;29.50;86.40
12688;DHT22;6408;59.388;17.798;2022-09-04T08:54:13;25.60;91.10
12688;DHT22;6408;59.388;17.798;2022-09-04T08:56:52;23.90;92.70
12688;DHT22;6408;59.388;17.798;2022-09-04T08:59:41;23.50;93.80
12688;DHT22;6408;59.388;17.798;2022-09-04T09:05:40;22.30;96.50
12688;DHT22;6408;59.388;17.798;2022-09-04T09:08:47;21.50;97.60
12688;DHT22;6408;59.388;17.798;2022-09-04T09:11:56;21.00;97.00
12688;DHT22;6408;59.388;17.798;2022-09-04T09:15:05;21.10;97.60
12688;DHT22;6408;59.388;17.798;2022-09-04T09:17:37;20.30;98.20
12688;DHT22;6408;59.388;17.798;2022-09-04T09:20:26;20.00;99.10
12688;DHT22;6408;59.388;17.798;2022-09-04T09:23:19;19.80;99.40
12688;DHT22;6408;59.388;17.798;2022-09-04T09:25:57;19.00;99.50
12688;DHT22;6408;59.388;17.798;2022-09-04T09:29:21;19.00;99.90
12688;DHT22;6408;59.388;17.798;2022-09-04T09:39:03;18.00;99.90
12688;DHT22;6408;59.388;17.798;2022-09-04T09:41:57;18.10;99.90
12688;DHT22;6408;59.388;17.798;2022-09-04T09:44:53;18.20;99.90
12688;DHT22;6408;59.388;17.798;2022-09-04T09:47:58;18.00;99.90
12688;DHT22;6408;59.388;17.798;2022-09-04T09:50:45;17.90;99.90
12688;DHT22;6408;59.388;17.798;2022-09-04T10:03:19;18.20;99.90
12688;DHT22;6408;59.388;17.798;2022-09-04T10:09:27;18.10;99.80
12688;DHT22;6408;59.388;17.798;2022-09-04T10:22:00;18.30;99.80
12688;DHT22;6408;59.388;17.798;2022-09-04T10:27:58;18.80;99.30
12688;DHT22;6408;59.388;17.798;2022-09-04T10:30:28;18.80;98.40
12688;DHT22;6408;59.388;17.798;2022-09-04T10:33:25;18.80;99.50
12688;DHT22;6408;59.388;17.798;2022-09-04T10:36:10;18.80;98.40
12688;DHT22;6408;59.388;17.798;2022-09-04T10:38:55;18.70;99.20
12688;DHT22;6408;59.388;17.798;2022-09-04T10:50:52;19.10;98.30
12688;DHT22;6408;59.388;17.798;2022-09-04T10:56:25;19.00;97.80
12688;DHT22;6408;59.388;17.798;2022-09-04T10:59:25;19.10;97.60
12688;DHT22;6408;59.388;17.798;2022-09-04T11:05:22;18.80;97.70
12688;DHT22;6408;59.388;17.798;2022-09-04T11:08:09;19.20;99.90
12688;DHT22;6408;59.388;17.798;2022-09-04T11:11:01;19.50;99.70
12688;DHT22;6408;59.388;17.798;2022-09-04T11:17:17;19.90;98.00
12688;DHT22;6408;59.388;17.798;2022-09-04T11:23:29;20.30;97.70
12688;DHT22;6408;59.388;17.798;2022-09-04T11:32:48;20.00;98.80
12688;DHT22;6408;59.388;17.798;2022-09-04T11:35:45;20.00;99.90
12688;DHT22;6408;59.388;17.798;2022-09-04T11:38:30;20.10;99.90
12688;DHT22;6408;59.388;17.798;2022-09-04T11:44:56;20.60;99.40
12688;DHT22;6408;59.388;17.798;2022-09-04T11:53:45;20.30;98.60
12688;DHT22;6408;59.388;17.798;2022-09-04T11:56:42;20.20;97.70
12688;DHT22;6408;59.388;17.798;2022-09-04T11:59:33;20.10;97.60
12688;DHT22;6408;59.388;17.798;2022-09-04T12:02:27;20.10;97.20
12688;DHT22;6408;59.388;17.798;2022-09-04T12:05:22;20.10;97.20
12688;DHT22;6408;59.388;17.798;2022-09-04T12:08:18;19.90;97.10
12688;DHT22;6408;59.388;17.798;2022-09-04T12:10:59;19.90;95.90
12688;DHT22;6408;59.388;17.798;2022-09-04T12:14:07;20.00;97.30
12688;DHT22;6408;59.388;17.798;2022-09-04T12:17:09;20.20;97.90
12688;DHT22;6408;59.388;17.798;2022-09-04T12:32:16;19.00;99.20
12688;DHT22;6408;59.388;17.798;2022-09-04T12:40:59;17.90;99.90
12688;DHT22;6408;59.388;17.798;2022-09-04T12:43:40;17.70;99.90
12688;DHT22;6408;59.388;17.798;2022-09-04T12:46:30;17.60;99.90
12688;DHT22;6408;59.388;17.798;2022-09-04T12:49:11;17.50;99.90
12688;DHT22;6408;59.388;17.798;2022-09-04T12:51:48;17.30;99.90
12688;DHT22;6408;59.388;17.798;2022-09-04T12:54:27;17.10;99.90
12688;DHT22;6408;59.388;17.798;2022-09-04T12:57:14;17.20;99.90
12688;DHT22;6408;59.388;17.798;2022-09-04T12:59:56;17.40;99.90
12688;DHT22;6408;59.388;17.798;2022-09-04T13:02:31;17.60;99.90
12688;DHT22;6408;59.388;17.798;2022-09-04T13:05:08;17.80;99.90
12688;DHT22;6408;59.388;17.798;2022-09-04T13:07:47;18.00;99.90
12688;DHT22;6408;59.388;17.798;2022-09-04T13:10:23;18.20;99.90
12688;DHT22;6408;59.388;17.798;2022-09-04T13:13:07;18.20;99.90
12688;DHT22;6408;59.388;17.798;2022-09-04T13:15:45;18.30;99.90
12688;DHT22;6408;59.388;17.798;2022-09-04T13:18:28;18.20;99.90
12688;DHT22;6408;59.388;17.798;2022-09-04T13:21:07;18.40;99.90
12688;DHT22;6408;59.388;17.798;2022-09-04T13:23:46;18.60;99.90
12688;DHT22;6408;59.388;17.798;2022-09-04T13:26:28;18.80;99.90
12688;DHT22;6408;59.388;17.798;2022-09-04T13:29:12;18.70;98.90
12688;DHT22;6408;59.388;17.798;2022-09-04T13:31:57;18.60;99.10
12688;DHT22;6408;59.388;17.798;2022-09-04T13:34:36;18.50;99.00
12688;DHT22;6408;59.388;17.798;2022-09-04T13:37:13;18.30;98.40
12688;DHT22;6408;59.388;17.798;2022-09-04T13:40:07;18.30;99.20
12688;DHT22;6408;59.388;17.798;2022-09-04T13:43:12;18.40;99.50
12688;DHT22;6408;59.388;17.798;2022-09-04T13:45:48;18.70;99.60
12688;DHT22;6408;59.388;17.798;2022-09-04T13:48:32;18.70;99.90
12688;DHT22;6408;59.388;17.798;2022-09-04T13:51:05;18.40;99.90
12688;DHT22;6408;59.388;17.798;2022-09-04T13:53:38;18.10;99.90
12688;DHT22;6408;59.388;17.798;2022-09-04T13:56:16;17.80;99.90
12688;DHT22;6408;59.388;17.798;2022-09-04T13:58:47;17.60;99.90
12688;DHT22;6408;59.388;17.798;2022-09-04T14:01:21;17.80;99.90
12688;DHT22;6408;59.388;17.798;2022-09-04T14:03:52;17.70;99.90
12688;DHT22;6408;59.388;17.798;2022-09-04T14:06:22;17.60;99.90
12688;DHT22;6408;59.388;17.798;2022-09-04T14:08:51;17.40;99.90
12688;DHT22;6408;59.388;17.798;2022-09-04T14:11:36;17.50;99.90
12688;DHT22;6408;59.388;17.798;2022-09-04T14:17:17;17.60;99.90
12688;DHT22;6408;59.388;17.798;2022-09-04T14:19:57;17.60;99.90
12688;DHT22;6408;59.388;17.798;2022-09-04T14:22:35;17.80;99.90
12688;DHT22;6408;59.388;17.798;2022-09-04T14:25:17;17.80;99.90
12688;DHT22;6408;59.388;17.798;2022-09-04T14:27:57;17.70;99.90
12688;DHT22;6408;59.388;17.798;2022-09-04T14:30:34;17.40;99.90
12688;DHT22;6408;59.388;17.798;2022-09-04T14:33:13;17.20;99.90
12688;DHT22;6408;59.388;17.798;2022-09-04T14:35:50;17.20;99.90
12688;DHT22;6408;59.388;17.798;2022-09-04T14:38:43;17.20;99.90
12688;DHT22;6408;59.388;17.798;2022-09-04T14:41:26;17.10;99.90
12688;DHT22;6408;59.388;17.798;2022-09-04T14:44:04;17.20;99.90
12688;DHT22;6408;59.388;17.798;2022-09-04T14:46:40;17.30;99.90
12688;DHT22;6408;59.388;17.798;2022-09-04T14:49:14;17.50;99.90
12688;DHT22;6408;59.388;17.798;2022-09-04T14:51:45;17.50;99.90
12688;DHT22;6408;59.388;17.798;2022-09-04T14:54:27;17.40;99.90
12688;DHT22;6408;59.388;17.798;2022-09-04T14:56:59;17.30;99.90
12688;DHT22;6408;59.388;17.798;2022-09-04T14:59:34;17.40;99.90
12688;DHT22;6408;59.388;17.798;2022-09-04T15:02:20;17.50;99.90
12688;DHT22;6408;59.388;17.798;2022-09-04T15:04:53;17.60;99.90
12688;DHT22;6408;59.388;17.798;2022-09-04T15:07:46;17.60;99.90
12688;DHT22;6408;59.388;17.798;2022-09-04T15:10:18;17.60;99.90
12688;DHT22;6408;59.388;17.798;2022-09-04T15:12:52;17.70;99.90
12688;DHT22;6408;59.388;17.798;2022-09-04T15:15:28;17.70;99.90
12688;DHT22;6408;59.388;17.798;2022-09-04T15:18:06;17.70;99.90
12688;DHT22;6408;59.388;17.798;2022-09-04T15:20:38;17.50;99.90
12688;DHT22;6408;59.388;17.798;2022-09-04T15:23:13;17.60;99.90
12688;DHT22;6408;59.388;17.798;2022-09-04T15:25:48;17.80;99.90
12688;DHT22;6408;59.388;17.798;2022-09-04T15:28:21;17.90;99.90
12688;DHT22;6408;59.388;17.798;2022-09-04T15:31:06;17.90;99.90
12688;DHT22;6408;59.388;17.798;2022-09-04T15:33:36;18.00;99.90
12688;DHT22;6408;59.388;17.798;2022-09-04T15:36:14;18.00;99.90
12688;DHT22;6408;59.388;17.798;2022-09-04T15:38:47;18.00;99.90
12688;DHT22;6408;59.388;17.798;2022-09-04T15:41:22;18.10;99.90
12688;DHT22;6408;59.388;17.798;2022-09-04T15:43:56;18.00;99.90
12688;DHT22;6408;59.388;17.798;2022-09-04T15:46:32;17.70;99.90
12688;DHT22;6408;59.388;17.798;2022-09-04T15:49:14;17.60;99.90
12688;DHT22;6408;59.388;17.798;2022-09-04T15:51:51;17.50;99.90
12688;DHT22;6408;59.388;17.798;2022-09-04T15:54:27;17.20;99.90
12688;DHT22;6408;59.388;17.798;2022-09-04T15:57:05;16.70;99.90
12688;DHT22;6408;59.388;17.798;2022-09-04T15:59:42;16.30;99.90
12688;DHT22;6408;59.388;17.798;2022-09-04T16:02:27;16.10;99.90
12688;DHT22;6408;59.388;17.798;2022-09-04T16:05:08;15.90;99.90
12688;DHT22;6408;59.388;17.798;2022-09-04T16:07:47;15.70;99.90
12688;DHT22;6408;59.388;17.798;2022-09-04T16:10:21;15.60;99.90
12688;DHT22;6408;59.388;17.798;2022-09-04T16:12:55;15.40;99.90
12688;DHT22;6408;59.388;17.798;2022-09-04T16:15:27;15.20;99.90
12688;DHT22;6408;59.388;17.798;2022-09-04T16:17:58;15.10;99.90
12688;DHT22;6408;59.388;17.798;2022-09-04T16:20:33;15.00;99.90
12688;DHT22;6408;59.388;17.798;2022-09-04T16:23:06;15.10;99.90
12688;DHT22;6408;59.388;17.798;2022-09-04T16:25:37;15.00;99.90
12688;DHT22;6408;59.388;17.798;2022-09-04T16:28:08;15.00;99.90
12688;DHT22;6408;59.388;17.798;2022-09-04T16:30:42;15.00;99.90
12688;DHT22;6408;59.388;17.798;2022-09-04T16:33:20;15.00;99.90
12688;DHT22;6408;59.388;17.798;2022-09-04T16:35:51;14.90;99.90
12688;DHT22;6408;59.388;17.798;2022-09-04T16:38:25;15.00;99.90
12688;DHT22;6408;59.388;17.798;2022-09-04T16:40:59;15.00;99.90
12688;DHT22;6408;59.388;17.798;2022-09-04T16:43:31;15.00;99.90
12688;DHT22;6408;59.388;17.798;2022-09-04T16:46:06;14.90;99.90
12688;DHT22;6408;59.388;17.798;2022-09-04T16:48:41;14.90;99.90
12688;DHT22;6408;59.388;17.798;2022-09-04T16:51:15;14.90;99.90
12688;DHT22;6408;59.388;17.798;2022-09-04T16:53:50;14.90;99.90
12688;DHT22;6408;59.388;17.798;2022-09-04T16:56:23;14.90;99.90
12688;DHT22;6408;59.388;17.798;2022-09-04T16:59:08;14.80;99.90
12688;DHT22;6408;59.388;17.798;2022-09-04T17:01:42;14.80;99.90
12688;DHT22;6408;59.388;17.798;2022-09-04T17:04:23;14.80;99.90
12688;DHT22;6408;59.388;17.798;2022-09-04T17:06:59;14.80;99.90
12688;DHT22;6408;59.388;17.798;2022-09-04T17:09:53;14.80;99.90
12688;DHT22;6408;59.388;17.798;2022-09-04T17:12:47;14.80;99.90
12688;DHT22;6408;59.388;17.798;2022-09-04T17:15:24;14.80;99.90
12688;DHT22;6408;59.388;17.798;2022-09-04T17:17:54;14.90;99.90
12688;DHT22;6408;59.388;17.798;2022-09-04T17:20:26;14.80;99.90
12688;DHT22;6408;59.388;17.798;2022-09-04T17:23:04;14.80;99.90
12688;DHT22;6408;59.388;17.798;2022-09-04T17:25:44;14.80;99.90
12688;DHT22;6408;59.388;17.798;2022-09-04T17:28:30;14.90;99.90
12688;DHT22;6408;59.388;17.798;2022-09-04T17:31:02;14.90;99.90
12688;DHT22;6408;59.388;17.798;2022-09-04T17:33:40;14.90;99.90
12688;DHT22;6408;59.388;17.798;2022-09-04T17:36:16;14.90;99.90
12688;DHT22;6408;59.388;17.798;2022-09-04T17:38:49;14.90;99.90
12688;DHT22;6408;59.388;17.798;2022-09-04T17:41:25;14.80;99.90
12688;DHT22;6408;59.388;17.798;2022-09-04T17:44:17;14.70;99.90
12688;DHT22;6408;59.388;17.798;2022-09-04T17:46:53;14.70;99.90
12688;DHT22;6408;59.388;17.798;2022-09-04T17:49:29;14.60;99.90
12688;DHT22;6408;59.388;17.798;2022-09-04T17:52:00;14.60;99.90
12688;DHT22;6408;59.388;17.798;2022-09-04T17:54:36;14.60;99.90
12688;DHT22;6408;59.388;17.798;2022-09-04T17:57:11;14.50;99.90
12688;DHT22;6408;59.388;17.798;2022-09-04T17:59:43;14.50;99.90
12688;DHT22;6408;59.388;17.798;2022-09-04T18:02:14;14.40;99.90
12688;DHT22;6408;59.388;17.798;2022-09-04T18:04:48;14.30;99.90
12688;DHT22;6408;59.388;17.798;2022-09-04T18:07:22;14.20;99.90
12688;DHT22;6408;59.388;17.798;2022-09-04T18:10:02;14.20;99.90
12688;DHT22;6408;59.388;17.798;2022-09-04T18:12:38;14.00;99.90
12688;DHT22;6408;59.388;17.798;2022-09-04T18:15:10;13.90;99.90
12688;DHT22;6408;59.388;17.798;2022-09-04T18:17:47;13.80;99.90
12688;DHT22;6408;59.388;17.798;2022-09-04T18:20:23;13.90;99.90
12688;DHT22;6408;59.388;17.798;2022-09-04T18:26:08;13.90;99.90
12688;DHT22;6408;59.388;17.798;2022-09-04T18:28:45;13.90;99.90
12688;DHT22;6408;59.388;17.798;2022-09-04T18:31:26;13.90;99.90
12688;DHT22;6408;59.388;17.798;2022-09-04T18:34:07;13.90;99.90
12688;DHT22;6408;59.388;17.798;2022-09-04T18:36:43;13.80;99.90
12688;DHT22;6408;59.388;17.798;2022-09-04T18:39:21;13.70;99.90
12688;DHT22;6408;59.388;17.798;2022-09-04T18:42:13;13.60;99.90
12688;DHT22;6408;59.388;17.798;2022-09-04T18:44:48;13.60;99.90
12688;DHT22;6408;59.388;17.798;2022-09-04T18:47:20;13.50;99.90
12688;DHT22;6408;59.388;17.798;2022-09-04T18:49:53;13.60;99.90
12688;DHT22;6408;59.388;17.798;2022-09-04T18:52:27;13.60;99.90
12688;DHT22;6408;59.388;17.798;2022-09-04T18:55:00;13.60;99.90
12688;DHT22;6408;59.388;17.798;2022-09-04T18:57:31;13.60;99.90
12688;DHT22;6408;59.388;17.798;2022-09-04T19:00:05;13.50;99.90
12688;DHT22;6408;59.388;17.798;2022-09-04T19:02:44;13.50;99.90
12688;DHT22;6408;59.388;17.798;2022-09-04T19:05:14;13.40;99.90
12688;DHT22;6408;59.388;17.798;2022-09-04T19:07:46;13.40;99.90
12688;DHT22;6408;59.388;17.798;2022-09-04T19:10:19;13.60;99.90
12688;DHT22;6408;59.388;17.798;2022-09-04T19:12:58;13.50;99.90
12688;DHT22;6408;59.388;17.798;2022-09-04T19:15:54;13.40;99.90
12688;DHT22;6408;59.388;17.798;2022-09-04T19:18:32;13.40;99.90
12688;DHT22;6408;59.388;17.798;2022-09-04T19:21:30;13.30;99.90